createdAt,value
2022-12-15T00:01:59.154Z,99883.50
2022-12-15T00:04:44.587Z,99888.50
2022-12-15T00:07:29.822Z,99891.00
2022-12-15T00:10:15.244Z,99884.88
2022-12-15T00:13:00.546Z,99881.31
2022-12-15T00:15:45.699Z,99879.56
2022-12-15T00:18:30.947Z,99880.44
2022-12-15T00:21:17.371Z,99884.72
2022-12-15T00:24:02.483Z,99889.72
2022-12-15T00:26:48.064Z,99888.75
2022-12-15T00:29:33.045Z,99887.91
2022-12-15T00:32:18.694Z,99892.16
2022-12-15T00:35:03.822Z,99903.22
2022-12-15T00:37:49.021Z,99899.56
2022-12-15T00:40:15.810Z,99907.97
2022-12-15T00:42:42.462Z,99899.25
2022-12-15T00:45:09.652Z,99906.94
2022-12-15T00:47:36.283Z,99913.78
2022-12-15T00:50:23.505Z,99912.06
2022-12-15T00:53:08.854Z,99910.34
2022-12-15T00:55:54.148Z,99916.22
2022-12-15T00:58:39.813Z,99921.06
2022-12-15T01:01:26.857Z,99919.16
2022-12-15T01:04:12.575Z,99920.75
2022-12-15T01:06:57.918Z,99919.78
2022-12-15T01:09:43.255Z,99917.06
2022-12-15T01:12:28.517Z,99916.00
2022-12-15T01:15:13.808Z,99919.13
2022-12-15T01:17:59.026Z,99925.88
2022-12-15T01:20:25.659Z,99921.59
2022-12-15T01:22:54.920Z,99928.34
2022-12-15T01:25:24.064Z,99935.06
2022-12-15T01:27:51.121Z,99928.03
2022-12-15T01:30:23.851Z,99929.75
2022-12-15T01:32:50.854Z,99945.19
2022-12-15T01:35:17.953Z,99945.97
2022-12-15T01:37:45.253Z,99945.00
2022-12-15T01:40:34.145Z,99950.09
2022-12-15T01:43:00.931Z,99951.75
2022-12-15T01:45:27.490Z,99951.72
2022-12-15T01:47:58.219Z,99946.59
2022-12-15T01:50:26.487Z,99954.28
2022-12-15T01:52:55.033Z,99955.03
2022-12-15T01:55:24.862Z,99943.72
2022-12-15T01:57:57.554Z,99947.00
2022-12-15T02:00:24.346Z,99939.75
2022-12-15T02:02:51.719Z,99948.94
2022-12-15T02:05:20.055Z,99945.34
2022-12-15T02:07:46.838Z,99960.59
2022-12-15T02:10:16.665Z,99949.28
2022-12-15T02:12:55.515Z,99948.31
2022-12-15T02:15:41.579Z,99962.19
2022-12-15T02:18:28.495Z,99962.28
2022-12-15T02:21:09.861Z,99968.28
2022-12-15T02:24:13.091Z,99964.97
2022-12-15T02:27:15.139Z,99965.84
2022-12-15T02:30:12.619Z,99970.03
2022-12-15T02:33:23.775Z,99972.25
2022-12-15T02:35:57.960Z,99978.97
2022-12-15T02:38:36.266Z,99977.88
2022-12-15T02:41:05.404Z,99982.13
2022-12-15T02:43:38.985Z,99984.50
2022-12-15T02:46:55.585Z,99991.19
2022-12-15T02:49:37.934Z,99988.31
2022-12-15T02:52:19.666Z,99988.09
2022-12-15T02:55:01.549Z,99986.13
2022-12-15T02:57:36.612Z,99977.34
2022-12-15T03:00:09.768Z,99980.56
2022-12-15T03:02:40.946Z,99975.94
2022-12-15T03:05:08.728Z,99990.38
2022-12-15T03:07:35.432Z,99989.47
2022-12-15T03:10:04.916Z,99982.69
2022-12-15T03:12:31.739Z,99978.38
2022-12-15T03:14:58.355Z,99984.44
2022-12-15T03:17:25.092Z,99991.41
2022-12-15T03:19:51.696Z,99984.75
2022-12-15T03:22:18.315Z,99989.19
2022-12-15T03:24:44.932Z,99982.31
2022-12-15T03:27:12.070Z,99988.97
2022-12-15T03:29:38.726Z,99986.13
2022-12-15T03:32:05.828Z,99985.97
2022-12-15T03:34:32.796Z,99985.84
2022-12-15T03:36:59.443Z,99993.41
2022-12-15T03:39:26.115Z,99988.97
2022-12-15T03:41:52.711Z,99991.44
2022-12-15T03:44:19.329Z,99995.72
2022-12-15T03:46:45.951Z,100008.59
2022-12-15T03:49:12.586Z,100004.06
2022-12-15T03:51:39.289Z,99997.28
2022-12-15T03:54:07.402Z,100008.63
2022-12-15T03:56:34.060Z,100014.72
2022-12-15T03:59:00.677Z,100012.91
2022-12-15T04:01:31.819Z,100023.16
2022-12-15T04:04:01.186Z,100015.47
2022-12-15T04:06:31.174Z,100018.84
2022-12-15T04:08:58.866Z,100032.38
2022-12-15T04:11:25.458Z,100033.81
2022-12-15T04:13:52.082Z,100029.97
2022-12-15T04:16:20.302Z,100037.06
2022-12-15T04:19:07.819Z,100044.09
2022-12-15T04:21:34.478Z,100040.34
2022-12-15T04:24:19.626Z,100037.72
2022-12-15T04:27:04.883Z,100036.25
2022-12-15T04:29:50.165Z,100045.13
2022-12-15T04:32:35.619Z,100035.97
2022-12-15T04:35:21.213Z,100043.53
2022-12-15T04:38:06.779Z,100055.25
2022-12-15T04:40:51.973Z,100049.09
2022-12-15T04:43:37.163Z,100054.34
2022-12-15T04:46:22.038Z,100056.19
2022-12-15T04:49:07.638Z,100058.03
2022-12-15T04:51:53.060Z,100061.44
2022-12-15T04:54:38.264Z,100056.56
2022-12-15T04:57:23.490Z,100062.09
2022-12-15T05:00:08.876Z,100048.56
2022-12-15T05:02:54.032Z,100055.41
2022-12-15T05:05:39.160Z,100063.69
2022-12-15T05:08:24.261Z,100063.47
2022-12-15T05:11:09.571Z,100064.34
2022-12-15T05:13:54.741Z,100066.78
2022-12-15T05:16:40.937Z,100072.63
2022-12-15T05:19:26.097Z,100071.94
2022-12-15T05:22:11.361Z,100079.81
2022-12-15T05:24:56.850Z,100076.44
2022-12-15T05:27:42.372Z,100079.13
2022-12-15T05:30:28.150Z,100081.75
2022-12-15T05:32:57.019Z,100078.41
2022-12-15T05:35:23.712Z,100082.38
2022-12-15T05:37:50.707Z,100085.44
2022-12-15T05:40:17.331Z,100094.06
2022-12-15T05:42:43.938Z,100090.25
2022-12-15T05:45:16.649Z,100086.19
2022-12-15T05:47:43.237Z,100086.72
2022-12-15T05:50:10.055Z,100089.63
2022-12-15T05:52:36.668Z,100087.28
2022-12-15T05:55:09.810Z,100101.88
2022-12-15T05:57:36.492Z,100101.88
2022-12-15T06:00:05.486Z,100102.91
2022-12-15T06:02:32.274Z,100115.72
2022-12-15T06:05:02.304Z,100108.03
2022-12-15T06:07:28.977Z,100115.03
2022-12-15T06:09:55.831Z,100114.28
2022-12-15T06:12:22.453Z,100118.53
2022-12-15T06:14:49.794Z,100119.34
2022-12-15T06:17:16.643Z,100127.03
2022-12-15T06:19:43.256Z,100127.91
2022-12-15T06:22:10.555Z,100124.47
2022-12-15T06:24:37.223Z,100122.09
2022-12-15T06:27:04.229Z,100121.34
2022-12-15T06:29:30.885Z,100123.91
2022-12-15T06:31:57.547Z,100121.41
2022-12-15T06:34:24.350Z,100124.78
2022-12-15T06:36:51.086Z,100131.59
2022-12-15T06:39:17.696Z,100135.88
2022-12-15T06:41:44.513Z,100137.53
2022-12-15T06:44:19.122Z,100127.16
2022-12-15T06:46:48.249Z,100129.72
2022-12-15T06:49:15.010Z,100129.91
2022-12-15T06:51:42.918Z,100130.03
2022-12-15T06:54:11.294Z,100132.84
2022-12-15T06:56:39.396Z,100130.53
2022-12-15T06:59:07.496Z,100139.31
2022-12-15T07:01:35.043Z,100150.78
2022-12-15T07:04:05.116Z,100134.66
2022-12-15T07:06:36.710Z,100143.13
2022-12-15T07:09:05.238Z,100154.16
2022-12-15T07:11:31.896Z,100159.16
2022-12-15T07:13:58.547Z,100158.16
2022-12-15T07:16:25.472Z,100157.38
2022-12-15T07:18:52.389Z,100162.63
2022-12-15T07:21:19.080Z,100159.28
2022-12-15T07:23:54.743Z,100171.31
2022-12-15T07:26:23.010Z,100179.78
2022-12-15T07:28:49.717Z,100177.13
2022-12-15T07:31:16.484Z,100182.19
2022-12-15T07:33:43.542Z,100187.25
2022-12-15T07:36:11.105Z,100181.94
2022-12-15T07:38:38.350Z,100192.06
2022-12-15T07:41:07.431Z,100190.44
2022-12-15T07:43:35.343Z,100190.66
2022-12-15T07:46:03.114Z,100199.34
2022-12-15T07:48:29.929Z,100196.66
2022-12-15T07:51:08.493Z,100202.56
2022-12-15T07:53:38.354Z,100206.84
2022-12-15T07:56:08.614Z,100210.38
2022-12-15T07:58:36.235Z,100215.72
2022-12-15T08:01:06.193Z,100210.00
2022-12-15T08:03:33.725Z,100212.72
2022-12-15T08:06:10.191Z,100218.94
2022-12-15T08:08:37.471Z,100216.63
2022-12-15T08:11:12.069Z,100218.50
2022-12-15T08:16:26.729Z,100223.97
2022-12-15T08:18:53.893Z,100214.50
2022-12-15T08:21:20.685Z,100220.69
2022-12-15T08:23:47.896Z,100222.75
2022-12-15T08:26:17.710Z,100233.13
2022-12-15T08:28:46.154Z,100232.13
2022-12-15T08:31:18.626Z,100237.38
2022-12-15T08:33:46.124Z,100233.19
2022-12-15T08:36:14.896Z,100240.13
2022-12-15T08:38:43.489Z,100247.06
2022-12-15T08:41:23.181Z,100249.56
2022-12-15T08:43:51.490Z,100242.84
2022-12-15T08:46:21.052Z,100240.56
2022-12-15T08:48:48.707Z,100244.06
2022-12-15T08:51:15.831Z,100234.69
2022-12-15T08:53:43.095Z,100235.59
2022-12-15T08:56:12.457Z,100233.97
2022-12-15T08:58:40.083Z,100237.66
2022-12-15T09:01:09.799Z,100235.22
2022-12-15T09:03:36.913Z,100240.47
2022-12-15T09:06:05.424Z,100238.94
2022-12-15T09:08:32.915Z,100228.91
2022-12-15T09:11:00.379Z,100237.66
2022-12-15T09:13:27.243Z,100234.56
2022-12-15T09:16:11.498Z,100234.75
2022-12-15T09:18:38.540Z,100228.97
2022-12-15T09:21:07.391Z,100239.34
2022-12-15T09:23:36.046Z,100241.78
2022-12-15T09:26:14.543Z,100241.53
2022-12-15T09:28:43.056Z,100243.16
2022-12-15T09:31:16.223Z,100250.16
2022-12-15T09:33:44.132Z,100259.81
2022-12-15T09:36:13.328Z,100259.25
2022-12-15T09:38:41.952Z,100266.16
2022-12-15T09:41:08.715Z,100273.16
2022-12-15T09:43:46.290Z,100265.66
2022-12-15T09:46:40.556Z,100273.66
2022-12-15T09:49:25.777Z,100266.28
2022-12-15T09:52:09.006Z,100275.28
2022-12-15T09:54:38.096Z,100274.81
2022-12-15T09:57:15.463Z,100277.72
2022-12-15T09:59:49.040Z,100277.19
2022-12-15T10:02:43.070Z,100280.16
2022-12-15T10:05:17.496Z,100277.97
2022-12-15T10:07:46.560Z,100280.94
2022-12-15T10:10:29.905Z,100272.66
2022-12-15T10:13:09.359Z,100277.28
2022-12-15T10:15:45.597Z,100277.59
2022-12-15T10:18:23.638Z,100283.00
2022-12-15T10:20:54.119Z,100269.50
2022-12-15T10:23:21.339Z,100267.13
2022-12-15T10:25:51.271Z,100266.47
2022-12-15T10:28:33.253Z,100267.47
2022-12-15T10:31:32.332Z,100270.25
2022-12-15T10:34:25.611Z,100271.22
2022-12-15T10:36:53.484Z,100279.13
2022-12-15T10:39:21.566Z,100280.16
2022-12-15T10:42:13.035Z,100294.97
2022-12-15T10:44:42.322Z,100290.78
2022-12-15T10:47:23.893Z,100290.91
2022-12-15T10:49:50.887Z,100292.75
2022-12-15T10:52:27.435Z,100294.56
2022-12-15T10:54:55.224Z,100291.25
2022-12-15T10:57:27.978Z,100297.34
2022-12-15T10:59:58.222Z,100286.28
2022-12-15T11:02:27.573Z,100298.38
2022-12-15T11:05:17.180Z,100299.28
2022-12-15T11:07:53.452Z,100288.16
2022-12-15T11:10:24.918Z,100293.41
2022-12-15T11:12:59.034Z,100284.84
2022-12-15T11:15:37.661Z,100290.03
2022-12-15T11:18:18.628Z,100290.91
2022-12-15T11:21:09.929Z,100304.53
2022-12-15T11:23:46.793Z,100306.13
2022-12-15T11:26:21.370Z,100318.16
2022-12-15T11:28:56.511Z,100322.34
2022-12-15T11:31:48.763Z,100321.47
2022-12-15T11:34:19.779Z,100331.66
2022-12-15T11:37:07.649Z,100321.34
2022-12-15T11:39:41.542Z,100320.59
2022-12-15T11:42:21.948Z,100318.03
2022-12-15T11:44:56.115Z,100318.00
2022-12-15T11:47:28.669Z,100326.63
2022-12-15T11:50:14.399Z,100322.28
2022-12-15T11:52:55.023Z,100328.16
2022-12-15T11:55:49.969Z,100329.72
2022-12-15T11:58:45.763Z,100327.03
2022-12-15T12:02:02.404Z,100328.59
2022-12-15T12:04:51.034Z,100326.03
2022-12-15T12:07:44.607Z,100325.97
2022-12-15T12:10:48.964Z,100331.91
2022-12-15T12:13:43.100Z,100335.31
2022-12-15T12:16:40.254Z,100333.47
2022-12-15T12:19:38.407Z,100328.13
2022-12-15T12:22:13.843Z,100334.97
2022-12-15T12:24:48.978Z,100335.00
2022-12-15T12:27:22.815Z,100347.06
2022-12-15T12:29:55.638Z,100340.88
2022-12-15T12:32:30.859Z,100346.88
2022-12-15T12:35:31.565Z,100337.44
2022-12-15T12:38:05.195Z,100334.09
2022-12-15T12:40:41.134Z,100328.13
2022-12-15T12:43:13.630Z,100334.00
2022-12-15T12:45:52.220Z,100332.25
2022-12-15T12:48:48.560Z,100340.75
2022-12-15T12:51:24.702Z,100343.25
2022-12-15T12:53:51.746Z,100350.91
2022-12-15T12:56:36.614Z,100347.53
2022-12-15T12:59:24.519Z,100340.72
2022-12-15T13:01:51.361Z,100350.19
2022-12-15T13:04:30.443Z,100349.34
2022-12-15T13:07:08.886Z,100349.34
2022-12-15T13:10:16.594Z,100354.50
2022-12-15T13:12:54.493Z,100351.91
2022-12-15T13:15:27.215Z,100358.00
2022-12-15T13:18:12.269Z,100352.84
2022-12-15T13:20:40.098Z,100349.38
2022-12-15T13:23:21.933Z,100354.53
2022-12-15T13:25:57.259Z,100357.94
2022-12-15T13:28:36.288Z,100373.34
2022-12-15T13:31:21.570Z,100372.50
2022-12-15T13:33:51.174Z,100369.94
2022-12-15T13:36:36.710Z,100373.44
2022-12-15T13:39:12.586Z,100368.28
2022-12-15T13:42:07.600Z,100364.78
2022-12-15T13:44:39.535Z,100373.34
2022-12-15T13:47:12.297Z,100374.19
2022-12-15T13:50:01.363Z,100380.22
2022-12-15T13:53:18.467Z,100380.16
2022-12-15T13:55:55.117Z,100380.91
2022-12-15T13:58:24.284Z,100378.31
2022-12-15T14:00:56.403Z,100379.22
2022-12-15T14:03:23.498Z,100382.59
2022-12-15T14:06:00.213Z,100385.19
2022-12-15T14:08:30.448Z,100385.31
2022-12-15T14:11:07.082Z,100373.25
2022-12-15T14:13:46.863Z,100375.91
2022-12-15T14:16:21.891Z,100372.50
2022-12-15T14:19:08.781Z,100380.97
2022-12-15T14:21:35.483Z,100385.91
2022-12-15T14:26:48.973Z,100381.50
2022-12-15T14:29:17.512Z,100378.94
2022-12-15T14:31:49.521Z,100391.09
2022-12-15T14:34:25.864Z,100392.06
2022-12-15T14:36:55.719Z,100383.63
2022-12-15T14:39:32.238Z,100387.97
2022-12-15T14:42:01.393Z,100390.63
2022-12-15T14:44:38.560Z,100389.88
2022-12-15T14:47:24.874Z,100392.56
2022-12-15T14:49:51.765Z,100390.91
2022-12-15T14:52:31.447Z,100395.16
2022-12-15T14:55:04.776Z,100392.38
2022-12-15T14:57:44.552Z,100396.50
2022-12-15T15:00:31.712Z,100404.03
2022-12-15T15:03:24.329Z,100404.88
2022-12-15T15:06:15.810Z,100407.44
2022-12-15T15:08:50.362Z,100405.63
2022-12-15T15:11:35.184Z,100405.47
2022-12-15T15:14:19.959Z,100414.78
2022-12-15T15:17:00.730Z,100409.44
2022-12-15T15:19:27.910Z,100413.69
2022-12-15T15:21:54.622Z,100418.75
2022-12-15T15:24:25.112Z,100422.13
2022-12-15T15:26:55.446Z,100422.13
2022-12-15T15:29:41.347Z,100415.34
2022-12-15T15:32:20.241Z,100424.69
2022-12-15T15:34:47.447Z,100424.69
2022-12-15T15:37:25.239Z,100429.91
2022-12-15T15:39:55.024Z,100433.28
2022-12-15T15:42:25.450Z,100427.34
2022-12-15T15:44:55.824Z,100430.78
2022-12-15T15:47:26.109Z,100435.09
2022-12-15T15:49:54.940Z,100434.31
2022-12-15T15:52:22.444Z,100426.66
2022-12-15T15:54:49.443Z,100435.25
2022-12-15T15:57:17.998Z,100433.56
2022-12-15T15:59:46.400Z,100433.56
2022-12-15T16:02:14.198Z,100443.97
2022-12-15T16:04:42.465Z,100440.50
2022-12-15T16:07:25.666Z,100442.25
2022-12-15T16:09:53.610Z,100436.25
2022-12-15T16:12:27.588Z,100442.19
2022-12-15T16:14:55.256Z,100444.00
2022-12-15T16:17:22.967Z,100446.63
2022-12-15T16:19:49.596Z,100442.38
2022-12-15T16:22:21.381Z,100433.72
2022-12-15T16:24:48.540Z,100449.13
2022-12-15T16:27:15.892Z,100444.75
2022-12-15T16:29:42.859Z,100447.31
2022-12-15T16:32:11.769Z,100443.06
2022-12-15T16:34:38.506Z,100450.84
2022-12-15T16:37:05.572Z,100456.91
2022-12-15T16:39:34.899Z,100459.56
2022-12-15T16:42:02.181Z,100455.28
2022-12-15T16:44:29.558Z,100451.88
2022-12-15T16:46:57.627Z,100452.75
2022-12-15T16:49:25.198Z,100460.47
2022-12-15T16:51:53.820Z,100466.50
2022-12-15T16:54:24.372Z,100464.75
2022-12-15T16:56:53.117Z,100471.59
2022-12-15T16:59:37.874Z,100464.63
2022-12-15T17:02:34.449Z,100463.84
2022-12-15T17:05:01.849Z,100457.91
2022-12-15T17:07:29.449Z,100462.13
2022-12-15T17:09:56.781Z,100460.19
2022-12-15T17:12:23.562Z,100454.91
2022-12-15T17:14:50.202Z,100454.94
2022-12-15T17:17:19.323Z,100460.94
2022-12-15T17:20:11.716Z,100456.53
2022-12-15T17:22:33.601Z,100461.53
2022-12-15T17:25:00.520Z,100464.00
2022-12-15T17:27:29.777Z,100461.19
2022-12-15T17:29:59.684Z,100469.75
2022-12-15T17:32:27.016Z,100480.75
2022-12-15T17:34:54.362Z,100462.28
2022-12-15T17:37:24.425Z,100471.66
2022-12-15T17:39:55.184Z,100470.66
2022-12-15T17:42:28.410Z,100482.00
2022-12-15T17:44:58.468Z,100481.97
2022-12-15T17:47:31.790Z,100465.56
2022-12-15T17:50:01.117Z,100477.81
2022-12-15T17:52:34.391Z,100492.50
2022-12-15T17:55:03.134Z,100488.94
2022-12-15T17:57:36.467Z,100497.41
2022-12-15T18:00:14.545Z,100499.84
2022-12-15T18:02:41.408Z,100487.75
2022-12-15T18:05:11.637Z,100502.25
2022-12-15T18:07:39.191Z,100512.34
2022-12-15T18:10:23.163Z,100512.25
2022-12-15T18:12:49.904Z,100514.72
2022-12-15T18:15:22.630Z,100509.50
2022-12-15T18:17:49.555Z,100519.03
2022-12-15T18:20:16.842Z,100512.19
2022-12-15T18:22:43.605Z,100515.63
2022-12-15T18:25:16.732Z,100510.44
2022-12-15T18:27:43.630Z,100510.44
2022-12-15T18:30:22.127Z,100513.06
2022-12-15T18:32:51.029Z,100513.06
2022-12-15T18:35:34.444Z,100514.75
2022-12-15T18:38:01.075Z,100514.59
2022-12-15T18:40:29.927Z,100516.19
2022-12-15T18:42:56.779Z,100516.06
2022-12-15T18:45:28.039Z,100517.38
2022-12-15T18:47:54.914Z,100518.97
2022-12-15T18:50:24.127Z,100523.28
2022-12-15T18:53:15.688Z,100528.38
2022-12-15T18:55:42.377Z,100526.50
2022-12-15T18:58:21.212Z,100528.16
2022-12-15T19:00:48.791Z,100533.28
2022-12-15T19:03:15.849Z,100530.72
2022-12-15T19:05:43.140Z,100534.75
2022-12-15T19:08:13.582Z,100544.16
2022-12-15T19:10:52.378Z,100552.69
2022-12-15T19:13:22.611Z,100545.78
2022-12-15T19:15:49.313Z,100549.13
2022-12-15T19:18:36.612Z,100561.00
2022-12-15T19:21:30.514Z,100556.44
2022-12-15T19:23:57.194Z,100563.97
2022-12-15T19:26:23.839Z,100559.69
2022-12-15T19:28:50.445Z,100570.84
2022-12-15T19:31:17.162Z,100575.97
2022-12-15T19:33:44.129Z,100573.41
2022-12-15T19:36:17.037Z,100571.72
2022-12-15T19:38:45.317Z,100578.56
2022-12-15T19:41:17.267Z,100581.00
2022-12-15T19:43:44.645Z,100583.56
2022-12-15T19:46:17.839Z,100576.69
2022-12-15T19:48:44.630Z,100587.81
2022-12-15T19:51:23.171Z,100577.38
2022-12-15T19:53:52.123Z,100574.66
2022-12-15T19:56:27.766Z,100584.94
2022-12-15T19:58:54.364Z,100591.69
2022-12-15T20:01:21.424Z,100591.63
2022-12-15T20:03:52.789Z,100596.69
2022-12-15T20:06:27.521Z,100594.03
2022-12-15T20:08:56.256Z,100601.59
2022-12-15T20:11:24.624Z,100597.19
2022-12-15T20:13:52.471Z,100603.88
2022-12-15T20:16:20.455Z,100610.50
2022-12-15T20:18:49.235Z,100614.72
2022-12-15T20:21:22.264Z,100620.56
2022-12-15T20:23:58.676Z,100623.16
2022-12-15T20:26:25.555Z,100622.19
2022-12-15T20:28:53.411Z,100621.41
2022-12-15T20:31:22.886Z,100627.47
2022-12-15T20:33:50.040Z,100639.63
2022-12-15T20:36:25.909Z,100628.56
2022-12-15T20:38:53.307Z,100632.00
2022-12-15T20:41:22.713Z,100637.94
2022-12-15T20:43:50.129Z,100637.84
2022-12-15T20:46:21.765Z,100637.72
2022-12-15T20:48:50.121Z,100640.44
2022-12-15T20:51:28.662Z,100640.44
2022-12-15T20:53:57.381Z,100650.91
2022-12-15T20:56:24.755Z,100644.09
2022-12-15T20:58:53.114Z,100649.28
2022-12-15T21:01:30.486Z,100646.84
2022-12-15T21:03:59.555Z,100641.84
2022-12-15T21:06:27.923Z,100648.53
2022-12-15T21:08:55.628Z,100640.75
2022-12-15T21:11:32.765Z,100648.72
2022-12-15T21:14:04.238Z,100652.31
2022-12-15T21:16:32.045Z,100650.09
2022-12-15T21:21:52.134Z,100654.59
2022-12-15T21:24:25.348Z,100658.94
2022-12-15T21:26:52.564Z,100652.09
2022-12-15T21:29:22.779Z,100655.53
2022-12-15T21:31:49.426Z,100659.81
2022-12-15T21:34:16.397Z,100663.16
2022-12-15T21:36:45.710Z,100669.00
2022-12-15T21:39:21.573Z,100681.69
2022-12-15T21:41:48.436Z,100676.56
2022-12-15T21:44:16.036Z,100668.81
2022-12-15T21:46:42.774Z,100672.19
2022-12-15T21:49:18.554Z,100675.63
2022-12-15T21:51:51.920Z,100680.69
2022-12-15T21:54:20.016Z,100682.38
2022-12-15T21:56:48.076Z,100671.16
2022-12-15T21:59:17.281Z,100682.19
2022-12-15T22:01:44.232Z,100677.50
2022-12-15T22:04:23.828Z,100678.34
2022-12-15T22:06:51.005Z,100688.19
2022-12-15T22:09:18.924Z,100690.28
2022-12-15T22:11:50.079Z,100697.50
2022-12-15T22:14:24.306Z,100695.22
2022-12-15T22:16:51.343Z,100703.09
2022-12-15T22:19:18.192Z,100697.44
2022-12-15T22:21:44.867Z,100700.50
2022-12-15T22:24:12.196Z,100699.56
2022-12-15T22:26:40.482Z,100690.13
2022-12-15T22:29:17.171Z,100701.41
2022-12-15T22:31:43.864Z,100707.63
2022-12-15T22:34:15.722Z,100707.19
2022-12-15T22:36:43.027Z,100696.25
2022-12-15T22:39:11.184Z,100711.94
2022-12-15T22:41:40.535Z,100713.84
2022-12-15T22:44:13.833Z,100712.34
2022-12-15T22:46:40.600Z,100716.84
2022-12-15T22:49:14.706Z,100722.34
2022-12-15T22:51:41.506Z,100716.66
2022-12-15T22:54:19.052Z,100722.09
2022-12-15T22:56:53.755Z,100722.28
2022-12-15T22:59:32.721Z,100725.38
2022-12-15T23:02:02.234Z,100725.75
2022-12-15T23:04:35.113Z,100729.59
2022-12-15T23:07:05.645Z,100725.75
2022-12-15T23:09:32.401Z,100727.84
2022-12-15T23:12:02.030Z,100728.19
2022-12-15T23:14:50.240Z,100723.25
2022-12-15T23:17:19.850Z,100732.78
2022-12-15T23:19:49.103Z,100731.25
2022-12-15T23:22:15.823Z,100732.22
2022-12-15T23:24:42.523Z,100735.63
2022-12-15T23:27:12.538Z,100742.56
2022-12-15T23:29:39.245Z,100746.13
2022-12-15T23:32:06.203Z,100747.97
2022-12-15T23:34:33.010Z,100747.22
2022-12-15T23:36:59.815Z,100755.13
2022-12-15T23:39:26.423Z,100761.22
2022-12-15T23:41:55.409Z,100760.38
2022-12-15T23:44:22.062Z,100765.63
2022-12-15T23:46:51.791Z,100755.38
2022-12-15T23:49:18.463Z,100769.19
2022-12-15T23:51:45.078Z,100766.53
2022-12-15T23:54:11.759Z,100765.63
2022-12-15T23:56:42.340Z,100772.38
2022-12-15T23:59:08.968Z,100767.19
